Time;durP1;ratioP1;P1;durP2;ratioP2;P2;SDS_P1;SDS_P2;PMS_P1;PMS_P2;Temp;Humidity;BMP_temperature;BMP_pressure;BME280_temperature;BME280_humidity;BME280_pressure;Samples;Min_cycle;Max_cycle;Signal;HPM_P1;HPM_P2
2022/02/22 00:01:14;;;;;;;0.80;0.80;;;6.90;99.90;;;;;;5122410;28;20697;-63
2022/02/22 00:03:47;;;;;;;1.20;1.20;;;7.00;99.90;;;;;;5117346;28;20212;-63
2022/02/22 00:06:18;;;;;;;1.25;1.15;;;7.00;99.90;;;;;;5123766;28;20192;-63
2022/02/22 00:08:50;;;;;;;2.17;1.30;;;7.00;99.90;;;;;;5121650;28;20202;-63
2022/02/22 00:11:23;;;;;;;2.10;1.27;;;7.20;99.90;;;;;;5118747;28;20191;-63
2022/02/22 00:13:54;;;;;;;1.30;1.20;;;7.20;99.90;;;;;;5107749;28;20200;-63
2022/02/22 00:16:25;;;;;;;1.98;1.48;;;7.20;99.90;;;;;;5121764;28;20200;-63
2022/02/22 00:18:58;;;;;;;1.40;1.30;;;7.10;99.90;;;;;;5118310;28;20663;-63
2022/02/22 00:21:29;;;;;;;1.40;1.30;;;7.00;99.90;;;;;;5122037;28;20227;-63
2022/02/22 00:23:59;;;;;;;2.40;1.60;;;7.10;99.90;;;;;;5121724;28;20222;-64
2022/02/22 00:26:30;;;;;;;1.38;1.27;;;7.20;99.90;;;;;;5122695;28;20196;-64
2022/02/22 00:29:02;;;;;;;1.40;1.30;;;7.30;99.90;;;;;;5121738;28;20214;-64
2022/02/22 00:31:33;;;;;;;1.50;1.40;;;7.20;99.90;;;;;;5115720;28;20219;-64
2022/02/22 00:34:06;;;;;;;1.27;1.00;;;7.20;99.90;;;;;;5120095;28;20196;-63
2022/02/22 00:36:37;;;;;;;1.45;1.35;;;7.10;99.90;;;;;;5122572;28;20541;-63
2022/02/22 00:39:11;;;;;;;1.95;1.20;;;7.20;99.90;;;;;;5123172;28;20192;-63
2022/02/22 00:41:44;;;;;;;1.55;1.45;;;7.20;99.90;;;;;;5126333;28;20219;-62
2022/02/22 00:44:15;;;;;;;1.70;1.60;;;7.10;99.90;;;;;;5125919;28;20199;-63
2022/02/22 00:46:47;;;;;;;1.63;1.20;;;7.00;99.90;;;;;;5126606;28;20215;-61
2022/02/22 00:49:19;;;;;;;1.40;1.30;;;6.90;99.90;;;;;;5123497;28;20184;-62
2022/02/22 00:51:51;;;;;;;1.38;1.38;;;6.80;99.90;;;;;;5119503;28;20204;-62
2022/02/22 00:54:25;;;;;;;1.50;1.40;;;6.80;99.90;;;;;;5125445;28;20214;-62
2022/02/22 00:56:56;;;;;;;1.85;1.45;;;6.80;99.90;;;;;;5126337;28;20226;-62
2022/02/22 00:59:28;;;;;;;1.40;1.30;;;6.70;99.90;;;;;;5124742;28;20207;-63
2022/02/22 01:01:59;;;;;;;2.33;1.60;;;6.70;99.90;;;;;;5126583;28;20238;-62
2022/02/22 01:04:38;;;;;;;1.60;1.50;;;6.60;99.90;;;;;;5125951;28;20198;-62
2022/02/22 01:11:00;;;;;;;2.20;2.00;;;6.30;99.90;;;;;;5124239;28;20210;-62
2022/02/22 01:13:31;;;;;;;1.88;1.77;;;6.20;99.90;;;;;;5124937;28;20198;-62
2022/02/22 01:16:02;;;;;;;2.17;1.90;;;6.10;99.90;;;;;;5125089;28;20184;-62
2022/02/22 01:18:33;;;;;;;2.08;1.98;;;6.10;99.90;;;;;;5126274;27;20292;-62
2022/02/22 01:21:06;;;;;;;2.20;2.10;;;6.10;99.90;;;;;;5126236;28;20224;-61
2022/02/22 01:23:36;;;;;;;2.20;2.10;;;5.90;99.90;;;;;;5124093;28;20196;-62
2022/02/22 01:26:07;;;;;;;2.45;2.25;;;5.90;99.90;;;;;;5126349;28;20200;-63
2022/02/22 01:28:38;;;;;;;3.35;2.75;;;5.90;99.90;;;;;;5126099;28;20279;-63
2022/02/22 01:31:09;;;;;;;2.35;2.13;;;5.90;99.90;;;;;;5125744;28;20210;-65
2022/02/22 01:33:40;;;;;;;2.90;2.67;;;5.80;99.90;;;;;;5123539;28;20196;-64
2022/02/22 01:36:13;;;;;;;3.55;2.80;;;5.90;99.90;;;;;;5121760;28;20546;-63
2022/02/22 01:38:45;;;;;;;3.05;2.50;;;5.70;99.90;;;;;;5125518;28;20214;-63
2022/02/22 01:41:15;;;;;;;3.42;2.85;;;5.70;99.90;;;;;;5124803;28;20219;-63
2022/02/22 01:43:46;;;;;;;3.75;3.20;;;5.70;99.90;;;;;;5121409;28;20199;-62
2022/02/22 01:46:17;;;;;;;3.60;3.10;;;5.70;99.90;;;;;;5124362;28;20304;-62
2022/02/22 01:48:48;;;;;;;2.63;2.42;;;5.70;99.90;;;;;;5125636;28;20244;-62
2022/02/22 01:51:24;;;;;;;3.45;3.15;;;5.70;99.90;;;;;;5121096;28;20303;-61
2022/02/22 01:53:55;;;;;;;3.13;2.83;;;5.60;99.90;;;;;;5123351;28;20222;-61
2022/02/22 01:56:26;;;;;;;4.90;2.88;;;5.50;99.90;;;;;;5124024;28;20228;-63
2022/02/22 01:58:57;;;;;;;3.05;2.75;;;5.40;99.90;;;;;;5123705;28;20948;-61
2022/02/22 02:01:28;;;;;;;3.15;2.92;;;5.30;99.90;;;;;;5124360;28;20235;-62
2022/02/22 02:03:59;;;;;;;2.85;2.63;;;5.20;99.90;;;;;;5123607;28;20287;-61
2022/02/22 02:06:32;;;;;;;3.15;2.85;;;5.10;99.90;;;;;;5124586;28;20204;-62
2022/02/22 02:09:03;;;;;;;3.28;2.97;;;5.10;99.90;;;;;;5124519;27;20203;-62
2022/02/22 02:11:44;;;;;;;4.00;3.60;;;5.20;99.90;;;;;;5121574;28;20192;-62
2022/02/22 02:14:16;;;;;;;6.05;3.15;;;5.20;99.90;;;;;;5123553;28;20202;-61
2022/02/22 02:16:48;;;;;;;4.00;3.63;;;5.10;99.90;;;;;;5124726;28;20218;-67
2022/02/22 02:19:22;;;;;;;9.23;5.00;;;5.20;99.90;;;;;;5122797;28;20318;-63
2022/02/22 02:22:01;;;;;;;9.45;6.72;;;5.20;99.90;;;;;;5123845;28;20239;-66
2022/02/22 02:24:32;;;;;;;8.57;6.30;;;5.20;99.90;;;;;;5122955;28;20234;-65
2022/02/22 02:27:03;;;;;;;5.80;5.10;;;5.20;99.90;;;;;;5124825;28;20613;-66
2022/02/22 02:29:34;;;;;;;8.98;5.75;;;5.20;99.90;;;;;;5124814;28;20245;-64
2022/02/22 02:32:06;;;;;;;5.75;5.25;;;5.30;99.90;;;;;;5124252;28;20200;-64
2022/02/22 02:34:37;;;;;;;8.23;7.20;;;5.40;99.90;;;;;;5122210;28;20214;-68
2022/02/22 02:37:10;;;;;;;8.48;7.10;;;5.40;99.90;;;;;;5123779;28;20210;-71
2022/02/22 02:39:41;;;;;;;7.63;6.55;;;5.40;99.90;;;;;;5123693;28;20280;-71
2022/02/22 02:42:12;;;;;;;10.93;6.78;;;5.30;99.90;;;;;;5124408;28;20249;-66
2022/02/22 02:44:43;;;;;;;7.20;5.90;;;5.30;99.90;;;;;;5115299;28;20239;-69
2022/02/22 02:47:14;;;;;;;6.40;5.80;;;5.40;99.90;;;;;;5123300;28;20289;-68
2022/02/22 02:49:47;;;;;;;13.38;8.13;;;5.60;99.90;;;;;;5122280;28;20346;-67
2022/02/22 02:52:21;;;;;;;5.63;5.13;;;5.70;99.90;;;;;;5124470;28;20203;-67
2022/02/22 02:54:55;;;;;;;6.07;5.57;;;5.70;99.90;;;;;;5122651;28;20207;-66
2022/02/22 02:57:26;;;;;;;7.45;6.75;;;5.50;99.90;;;;;;5123509;28;20715;-65
2022/02/22 02:59:58;;;;;;;9.88;8.88;;;5.50;99.90;;;;;;5123490;28;20200;-65
2022/02/22 03:02:30;;;;;;;9.43;8.60;;;5.50;99.90;;;;;;5122892;28;20591;-65
2022/02/22 03:05:02;;;;;;;8.93;8.10;;;5.50;99.90;;;;;;5123505;28;20919;-65
2022/02/22 03:07:34;;;;;;;8.60;7.80;;;5.50;99.90;;;;;;5121353;28;20287;-64
2022/02/22 03:10:06;;;;;;;6.25;5.65;;;5.50;99.90;;;;;;5123989;28;20263;-64
2022/02/22 03:12:38;;;;;;;5.10;4.60;;;5.50;99.90;;;;;;5123574;28;20261;-61
2022/02/22 03:15:10;;;;;;;8.93;6.15;;;5.40;99.90;;;;;;5122880;28;20639;-61
2022/02/22 03:17:41;;;;;;;6.38;5.75;;;5.50;99.90;;;;;;5122246;28;20334;-65
2022/02/22 03:20:12;;;;;;;5.70;5.10;;;5.60;99.90;;;;;;5122564;28;20217;-62
2022/02/22 03:23:00;;;;;;;10.13;6.57;;;5.50;99.90;;;;;;5122055;28;20296;-63
2022/02/22 03:25:31;;;;;;;8.02;5.50;;;5.40;99.90;;;;;;5118707;28;20231;-62
2022/02/22 03:28:05;;;;;;;6.22;5.63;;;5.30;99.90;;;;;;5118988;28;20207;-64
2022/02/22 03:30:38;;;;;;;5.90;5.38;;;5.10;99.90;;;;;;5122966;28;20203;-60
2022/02/22 03:33:10;;;;;;;5.88;5.38;;;5.00;99.90;;;;;;5124058;28;20196;-60
2022/02/22 03:35:43;;;;;;;62.97;14.60;;;4.80;99.90;;;;;;5123314;28;20282;-60
2022/02/22 03:38:15;;;;;;;301.65;55.70;;;4.80;99.90;;;;;;5122750;28;20283;-63
2022/02/22 03:40:46;;;;;;;15.70;10.27;;;4.80;99.90;;;;;;5123589;28;20200;-66
2022/02/22 03:43:18;;;;;;;12.35;10.80;;;4.80;99.90;;;;;;5123336;28;20315;-63
2022/02/22 03:45:48;;;;;;;11.32;10.07;;;4.60;99.90;;;;;;5122800;28;20192;-63
2022/02/22 03:48:19;;;;;;;9.52;8.63;;;4.50;99.90;;;;;;5123124;28;20202;-62
2022/02/22 03:50:50;;;;;;;7.93;7.25;;;4.40;99.90;;;;;;5121101;28;20200;-63
2022/02/22 03:53:25;;;;;;;5.32;4.93;;;4.40;99.90;;;;;;5118355;28;20259;-64
2022/02/22 03:55:56;;;;;;;4.88;4.40;;;4.20;99.90;;;;;;5122026;28;20223;-62
2022/02/22 03:58:27;;;;;;;6.10;4.35;;;4.30;99.90;;;;;;5121728;28;20218;-63
2022/02/22 04:00:58;;;;;;;5.10;4.70;;;4.10;99.90;;;;;;5122536;28;20180;-63
2022/02/22 04:03:35;;;;;;;47.72;16.30;;;4.30;99.90;;;;;;5121473;28;20299;-65
2022/02/22 04:06:13;;;;;;;1643.07;290.75;;;4.30;99.90;;;;;;5117545;28;20202;-65
2022/02/22 04:08:55;;;;;;;6.63;5.43;;;4.40;99.90;;;;;;5119229;28;20211;-65
2022/02/22 04:11:26;;;;;;;6.15;5.65;;;4.30;99.90;;;;;;5120289;28;20221;-63
2022/02/22 04:13:57;;;;;;;5.85;5.32;;;4.30;99.90;;;;;;5119821;28;20697;-63
2022/02/22 04:16:27;;;;;;;5.22;4.72;;;4.30;99.90;;;;;;5122062;28;20268;-60
2022/02/22 04:18:58;;;;;;;5.50;5.00;;;4.30;99.90;;;;;;5120769;28;20219;-64
2022/02/22 04:21:29;;;;;;;7.53;4.35;;;4.20;99.90;;;;;;5115898;28;20203;-63
2022/02/22 04:24:02;;;;;;;6.18;5.57;;;4.20;99.90;;;;;;5115259;28;20215;-64
2022/02/22 04:26:33;;;;;;;6.45;5.90;;;4.30;99.90;;;;;;5122124;28;21035;-63
2022/02/22 04:29:04;;;;;;;6.28;5.65;;;4.30;99.90;;;;;;5117633;28;20207;-63
2022/02/22 04:31:38;;;;;;;7.32;5.82;;;4.30;99.90;;;;;;5120562;28;20198;-63
2022/02/22 04:34:33;;;;;;;6.68;6.10;;;4.30;99.90;;;;;;5122964;28;20526;-64
2022/02/22 04:37:04;;;;;;;5.85;4.40;;;4.30;99.90;;;;;;5120342;28;20203;-63
2022/02/22 04:39:40;;;;;;;4.30;3.90;;;4.30;99.90;;;;;;5122038;28;20210;-64
2022/02/22 04:42:11;;;;;;;4.80;4.40;;;4.40;99.90;;;;;;5117893;28;20283;-63
2022/02/22 04:44:43;;;;;;;69.78;15.63;;;4.40;99.90;;;;;;5117574;28;20204;-64
2022/02/22 04:47:15;;;;;;;34.92;9.13;;;4.50;99.90;;;;;;5120887;28;20207;-63
2022/02/22 04:49:46;;;;;;;853.55;144.10;;;4.50;99.90;;;;;;5119848;28;20230;-65
2022/02/22 04:52:17;;;;;;;6.03;5.38;;;4.60;99.90;;;;;;5118987;28;20622;-62
2022/02/22 04:54:50;;;;;;;11.27;9.00;;;4.60;99.90;;;;;;5107890;28;20203;-63
2022/02/22 04:57:21;;;;;;;11.32;9.55;;;4.60;99.90;;;;;;5117583;28;20223;-63
2022/02/22 04:59:51;;;;;;;9.80;8.90;;;4.50;99.90;;;;;;5121841;28;20215;-64
2022/02/22 05:02:22;;;;;;;10.40;9.50;;;4.40;99.90;;;;;;5122191;28;20235;-64
2022/02/22 05:04:53;;;;;;;9.80;8.85;;;4.40;99.90;;;;;;5115977;28;20200;-61
2022/02/22 05:07:24;;;;;;;10.32;8.65;;;4.30;99.90;;;;;;5120344;28;20208;-64
2022/02/22 05:09:57;;;;;;;9.73;8.73;;;4.30;99.90;;;;;;5121630;28;20610;-64
2022/02/22 05:12:28;;;;;;;7.93;7.18;;;4.40;99.90;;;;;;5115115;28;20222;-63
2022/02/22 05:14:59;;;;;;;6.35;5.75;;;4.40;99.90;;;;;;5121966;28;20654;-64
2022/02/22 05:17:30;;;;;;;6.40;5.80;;;4.40;99.90;;;;;;5115355;28;20774;-63
2022/02/22 05:20:04;;;;;;;6.93;5.60;;;4.40;99.90;;;;;;5120535;28;20188;-65
2022/02/22 05:22:40;;;;;;;6.45;5.85;;;4.40;99.90;;;;;;5118658;28;20230;-62
2022/02/22 05:25:14;;;;;;;6.40;5.80;;;4.40;99.90;;;;;;5124661;28;20210;-65
2022/02/22 05:27:46;;;;;;;5.22;4.78;;;4.30;99.90;;;;;;5125638;28;20203;-63
2022/02/22 05:30:18;;;;;;;5.50;5.00;;;4.30;99.90;;;;;;5125540;28;20195;-65
2022/02/22 05:32:49;;;;;;;5.85;5.35;;;4.30;99.90;;;;;;5124258;28;20224;-62
2022/02/22 05:35:23;;;;;;;4.65;4.20;;;4.20;99.90;;;;;;5106670;28;20214;-64
2022/02/22 05:37:54;;;;;;;5.22;4.82;;;4.20;99.90;;;;;;5120191;28;20563;-63
2022/02/22 05:40:37;;;;;;;5.50;4.40;;;4.20;99.90;;;;;;5124090;28;20216;-64
2022/02/22 05:43:08;;;;;;;5.25;4.75;;;4.10;99.90;;;;;;5122699;28;20230;-64
2022/02/22 05:45:40;;;;;;;4.10;3.70;;;4.00;99.90;;;;;;5121640;28;20663;-64
2022/02/22 05:48:13;;;;;;;4.15;3.70;;;3.90;99.90;;;;;;5119418;28;20223;-63
2022/02/22 05:50:44;;;;;;;5.13;3.92;;;3.80;99.90;;;;;;5117069;28;20195;-63
2022/02/22 05:53:15;;;;;;;4.10;3.80;;;3.90;99.90;;;;;;5119535;28;20551;-67
2022/02/22 05:55:47;;;;;;;5.70;5.15;;;3.90;99.90;;;;;;5120248;28;20240;-63
2022/02/22 05:58:18;;;;;;;5.57;5.13;;;3.80;99.90;;;;;;5118490;28;20204;-64
2022/02/22 06:00:49;;;;;;;4.43;4.03;;;3.80;99.90;;;;;;5118773;28;20279;-63
2022/02/22 06:03:20;;;;;;;5.10;4.70;;;3.70;99.90;;;;;;5119831;28;20219;-64
2022/02/22 06:05:51;;;;;;;5.28;4.88;;;3.60;99.90;;;;;;5120418;28;20192;-64
2022/02/22 06:08:21;;;;;;;5.70;5.15;;;3.50;99.90;;;;;;5123939;28;20596;-64
2022/02/22 06:10:54;;;;;;;5.85;5.30;;;3.40;99.90;;;;;;5121752;28;20200;-64
2022/02/22 06:13:25;;;;;;;6.22;5.25;;;3.40;99.90;;;;;;5124453;28;20196;-64
2022/02/22 06:15:56;;;;;;;5.63;5.13;;;3.40;99.90;;;;;;5124292;28;20206;-64
2022/02/22 06:18:27;;;;;;;8.63;5.07;;;3.30;99.90;;;;;;5123721;28;20196;-64
2022/02/22 06:20:58;;;;;;;5.30;4.70;;;3.30;99.90;;;;;;5124969;28;20279;-63
2022/02/22 06:23:31;;;;;;;5.70;5.20;;;3.30;99.90;;;;;;5124079;28;20234;-64
2022/02/22 06:26:04;;;;;;;5.75;5.22;;;3.20;99.90;;;;;;5124459;28;20256;-64
2022/02/22 06:28:35;;;;;;;5.43;4.93;;;3.20;99.90;;;;;;5124162;28;20202;-64
2022/02/22 06:31:09;;;;;;;5.55;5.05;;;3.20;99.90;;;;;;5124498;28;20230;-63
2022/02/22 06:33:40;;;;;;;5.88;5.15;;;3.10;99.90;;;;;;5122671;28;20187;-63
2022/02/22 06:36:11;;;;;;;6.35;5.28;;;3.10;99.90;;;;;;5123608;28;20199;-64
2022/02/22 06:38:41;;;;;;;7.80;4.95;;;3.10;99.90;;;;;;5123108;28;20216;-63
2022/02/22 06:41:14;;;;;;;6.00;5.20;;;3.10;99.90;;;;;;5121899;28;20303;-64
2022/02/22 06:43:45;;;;;;;7.00;6.40;;;3.10;99.90;;;;;;5123667;28;20228;-63
2022/02/22 06:46:15;;;;;;;6.38;5.75;;;3.10;99.90;;;;;;5120464;28;20200;-64
2022/02/22 06:48:46;;;;;;;6.60;6.00;;;3.00;99.90;;;;;;5123706;28;20206;-66
2022/02/22 06:51:17;;;;;;;6.90;6.30;;;3.00;99.90;;;;;;5122654;28;20188;-63
2022/02/22 06:53:48;;;;;;;6.75;6.10;;;3.00;99.90;;;;;;5123388;28;20282;-64
2022/02/22 06:56:21;;;;;;;6.28;5.63;;;3.00;99.90;;;;;;5123803;28;20220;-64
2022/02/22 06:58:54;;;;;;;7.13;6.43;;;2.90;99.90;;;;;;5123206;28;20210;-63
2022/02/22 07:01:25;;;;;;;6.30;5.70;;;2.90;99.90;;;;;;5123535;28;20195;-63
2022/02/22 07:03:56;;;;;;;5.78;5.28;;;2.80;99.90;;;;;;5121808;28;20233;-63
2022/02/22 07:06:27;;;;;;;6.05;5.55;;;2.90;99.90;;;;;;5123998;28;20196;-63
2022/02/22 07:08:57;;;;;;;5.90;5.40;;;2.90;99.90;;;;;;5122930;28;20215;-63
2022/02/22 07:11:30;;;;;;;6.03;5.43;;;2.80;99.90;;;;;;5123686;28;20196;-62
2022/02/22 07:14:02;;;;;;;5.80;5.10;;;2.80;99.90;;;;;;5123196;28;20200;-63
2022/02/22 07:16:33;;;;;;;4.85;4.40;;;2.70;99.90;;;;;;5123604;28;20203;-63
2022/02/22 07:19:05;;;;;;;4.18;3.78;;;2.70;99.90;;;;;;5123212;28;20226;-64
2022/02/22 07:21:38;;;;;;;4.25;3.85;;;2.60;99.90;;;;;;5122747;28;20196;-63
2022/02/22 07:24:09;;;;;;;4.10;3.70;;;2.50;99.90;;;;;;5121523;28;20233;-63
2022/02/22 07:26:40;;;;;;;3.45;3.15;;;2.50;99.90;;;;;;5122880;28;20200;-64
2022/02/22 07:29:12;;;;;;;3.80;3.50;;;2.50;99.90;;;;;;5122479;28;20214;-64
2022/02/22 07:31:43;;;;;;;3.38;3.13;;;2.50;99.90;;;;;;5121064;28;20200;-64
2022/02/22 07:34:14;;;;;;;2.88;2.67;;;2.50;99.90;;;;;;5123209;28;20208;-64
2022/02/22 07:36:46;;;;;;;3.30;2.85;;;2.50;99.90;;;;;;5123412;28;20200;-64
2022/02/22 07:39:17;;;;;;;3.28;3.05;;;2.50;99.90;;;;;;5121335;27;20208;-64
2022/02/22 07:41:48;;;;;;;2.75;2.55;;;2.50;99.90;;;;;;5121119;28;20196;-64
2022/02/22 07:44:20;;;;;;;3.08;2.67;;;2.60;99.90;;;;;;5120423;28;20231;-64
2022/02/22 07:46:51;;;;;;;2.40;2.20;;;2.50;99.90;;;;;;5121073;28;20184;-64
2022/02/22 07:49:22;;;;;;;3.10;2.22;;;2.50;99.90;;;;;;5123536;28;20210;-64
2022/02/22 07:52:13;;;;;;;2.13;2.03;;;2.70;99.90;;;;;;5122625;28;20297;-64
2022/02/22 07:54:44;;;;;;;2.58;1.92;;;2.70;99.90;;;;;;5122543;28;20196;-63
2022/02/22 07:57:15;;;;;;;2.72;2.03;;;2.80;99.90;;;;;;5122782;28;20243;-64
2022/02/22 07:59:50;;;;;;;2.15;1.67;;;2.80;99.90;;;;;;5119991;28;20204;-63
2022/02/22 08:02:21;;;;;;;3.33;2.05;;;2.80;99.90;;;;;;5123255;28;20222;-64
2022/02/22 08:04:52;;;;;;;2.13;1.92;;;2.80;99.90;;;;;;5122865;28;20216;-63
2022/02/22 08:07:23;;;;;;;3.20;2.55;;;2.80;99.90;;;;;;5122838;28;20203;-64
2022/02/22 08:09:53;;;;;;;2.22;2.10;;;2.90;99.90;;;;;;5122214;28;20203;-64
2022/02/22 08:12:24;;;;;;;2.42;2.22;;;2.90;99.90;;;;;;5123366;28;20200;-64
2022/02/22 08:14:56;;;;;;;1.80;1.70;;;2.90;99.90;;;;;;5122018;28;20210;-64
2022/02/22 08:17:27;;;;;;;2.47;2.28;;;3.00;99.90;;;;;;5122691;28;20184;-64
2022/02/22 08:19:58;;;;;;;1.60;1.50;;;2.90;99.90;;;;;;5121687;28;20252;-64
2022/02/22 08:22:29;;;;;;;1.77;1.67;;;2.90;99.90;;;;;;5118104;28;20200;-64
2022/02/22 08:25:00;;;;;;;1.40;1.30;;;2.90;99.90;;;;;;5121381;28;20677;-64
2022/02/22 08:27:31;;;;;;;1.52;1.40;;;2.90;99.90;;;;;;5122617;28;20196;-64
2022/02/22 08:30:03;;;;;;;1.75;1.45;;;2.90;99.90;;;;;;5118014;28;20200;-64
2022/02/22 08:32:34;;;;;;;1.58;1.48;;;2.90;99.90;;;;;;5121607;28;20268;-64
2022/02/22 08:35:06;;;;;;;1.30;1.30;;;3.00;99.90;;;;;;5122764;28;20226;-64
2022/02/22 08:37:37;;;;;;;1.85;1.75;;;3.00;99.90;;;;;;5122198;28;20209;-64
2022/02/22 08:40:09;;;;;;;1.65;1.55;;;3.00;99.90;;;;;;5121873;28;20200;-64
2022/02/22 08:42:41;;;;;;;1.88;1.77;;;3.00;99.90;;;;;;5122505;28;20204;-64
2022/02/22 08:45:27;;;;;;;1.60;1.35;;;3.00;99.90;;;;;;5121409;28;20227;-64
2022/02/22 08:47:58;;;;;;;2.13;1.92;;;3.10;99.90;;;;;;5123026;28;20410;-65
2022/02/22 08:50:29;;;;;;;1.55;1.45;;;3.10;99.90;;;;;;5122187;28;20192;-64
2022/02/22 08:53:03;;;;;;;1.70;1.58;;;3.00;99.90;;;;;;5122096;28;20612;-65
2022/02/22 08:55:33;;;;;;;2.03;1.80;;;3.00;99.90;;;;;;5121634;28;20221;-64
2022/02/22 08:58:04;;;;;;;1.55;1.40;;;3.00;99.90;;;;;;5122638;28;20196;-64
2022/02/22 09:00:37;;;;;;;1.67;1.58;;;3.00;99.90;;;;;;5125026;28;20204;-64
2022/02/22 09:03:08;;;;;;;2.00;1.60;;;3.00;99.90;;;;;;5126646;28;20195;-64
2022/02/22 09:05:39;;;;;;;2.03;1.80;;;3.00;99.90;;;;;;5126041;27;20226;-64
2022/02/22 09:08:10;;;;;;;1.83;1.70;;;3.00;99.90;;;;;;5126272;27;20211;-64
2022/02/22 09:10:44;;;;;;;1.80;1.70;;;3.00;99.90;;;;;;5125521;28;20199;-64
2022/02/22 09:13:16;;;;;;;2.20;2.10;;;2.90;99.90;;;;;;5126153;28;20213;-64
2022/02/22 09:15:50;;;;;;;1.55;1.45;;;2.90;99.90;;;;;;5125807;28;20235;-64
2022/02/22 09:18:22;;;;;;;1.67;1.58;;;2.80;99.90;;;;;;5126740;28;20290;-65
2022/02/22 09:20:53;;;;;;;2.38;2.17;;;2.80;99.90;;;;;;5125778;28;20202;-64
2022/02/22 09:23:24;;;;;;;3.15;1.48;;;2.80;99.90;;;;;;5124567;28;21175;-64
2022/02/22 09:25:55;;;;;;;2.05;1.85;;;2.80;99.90;;;;;;5124748;28;20296;-64
2022/02/22 09:28:26;;;;;;;1.80;1.70;;;2.80;99.90;;;;;;5125593;28;20241;-64
2022/02/22 09:30:59;;;;;;;1.98;1.60;;;2.70;99.90;;;;;;5125255;28;20290;-64
2022/02/22 09:33:30;;;;;;;1.98;1.88;;;2.70;99.90;;;;;;5125744;28;20214;-64
2022/02/22 09:36:01;;;;;;;1.73;1.63;;;2.70;99.90;;;;;;5125680;28;20210;-64
2022/02/22 09:38:32;;;;;;;2.72;1.80;;;2.70;99.90;;;;;;5125490;28;20671;-64
2022/02/22 09:41:03;;;;;;;3.38;1.85;;;2.70;99.90;;;;;;5124956;28;20200;-64
2022/02/22 09:43:34;;;;;;;1.70;1.60;;;2.60;99.90;;;;;;5125373;28;20210;-64
2022/02/22 09:46:09;;;;;;;2.53;1.80;;;2.60;99.90;;;;;;5125108;28;20231;-64
2022/02/22 09:48:40;;;;;;;2.05;1.90;;;2.60;99.90;;;;;;5125446;28;20275;-64
2022/02/22 09:51:11;;;;;;;1.75;1.65;;;2.50;99.90;;;;;;5125775;28;20199;-64
2022/02/22 09:53:43;;;;;;;1.98;1.88;;;2.50;99.90;;;;;;5125048;28;20270;-64
2022/02/22 09:56:13;;;;;;;1.83;1.73;;;2.40;99.90;;;;;;5124549;28;20224;-64
2022/02/22 09:58:44;;;;;;;2.38;1.98;;;2.50;99.90;;;;;;5125010;28;20632;-64
2022/02/22 10:01:17;;;;;;;3.17;2.20;;;2.40;99.90;;;;;;5124581;27;20287;-64
2022/02/22 10:03:59;;;;;;;2.47;2.30;;;2.40;99.90;;;;;;5125879;28;20200;-64
2022/02/22 10:06:31;;;;;;;2.45;2.10;;;2.40;99.90;;;;;;5123709;28;20207;-64
2022/02/22 10:09:02;;;;;;;2.50;2.30;;;2.40;99.90;;;;;;5124131;28;20235;-64
2022/02/22 10:11:45;;;;;;;3.60;2.85;;;2.40;99.90;;;;;;5122489;28;20256;-64
2022/02/22 10:14:26;;;;;;;2.75;1.95;;;2.40;99.90;;;;;;5124695;28;20229;-64
2022/02/22 10:16:59;;;;;;;2.50;1.90;;;2.40;99.90;;;;;;5123481;28;20278;-65
2022/02/22 10:19:34;;;;;;;2.10;1.70;;;2.40;99.90;;;;;;5124654;28;20211;-64
2022/02/22 10:22:09;;;;;;;3.10;1.95;;;2.40;99.90;;;;;;5124932;28;20206;-64
2022/02/22 10:24:40;;;;;;;1.70;1.60;;;2.40;99.90;;;;;;5125009;28;20298;-64
2022/02/22 10:27:12;;;;;;;2.70;1.90;;;2.30;99.90;;;;;;5125349;28;20260;-64
2022/02/22 10:29:43;;;;;;;3.63;2.08;;;2.30;99.90;;;;;;5118649;28;20195;-64
2022/02/22 10:32:17;;;;;;;2.95;2.13;;;2.30;99.90;;;;;;5122082;28;20307;-64
2022/02/22 10:34:53;;;;;;;2.90;1.70;;;2.20;99.90;;;;;;5123808;27;20204;-64
2022/02/22 10:37:33;;;;;;;2.17;2.00;;;2.30;99.90;;;;;;5124808;28;20287;-64
2022/02/22 10:40:05;;;;;;;2.75;2.40;;;2.30;99.90;;;;;;5124983;28;20222;-64
2022/02/22 10:42:39;;;;;;;2.30;2.10;;;2.30;99.90;;;;;;5123979;28;20268;-65
2022/02/22 10:45:13;;;;;;;2.55;2.35;;;2.20;99.90;;;;;;5124074;28;20263;-64
2022/02/22 10:47:47;;;;;;;3.20;2.13;;;2.20;99.90;;;;;;5123931;28;20203;-63
2022/02/22 10:50:25;;;;;;;1.83;1.73;;;2.20;99.90;;;;;;5123375;27;20216;-64
2022/02/22 10:52:57;;;;;;;2.35;2.15;;;2.10;99.90;;;;;;5121654;28;20231;-64
2022/02/22 10:55:31;;;;;;;2.15;1.63;;;2.10;99.90;;;;;;5122183;28;20246;-64
2022/02/22 10:58:03;;;;;;;5.10;2.17;;;2.10;99.90;;;;;;5124474;28;20268;-64
2022/02/22 11:00:34;;;;;;;1.92;1.77;;;2.10;99.90;;;;;;5123219;28;20246;-65
2022/02/22 11:03:07;;;;;;;1.42;1.33;;;2.10;99.90;;;;;;5117658;28;20237;-65
2022/02/22 11:05:41;;;;;;;2.35;2.15;;;2.00;99.90;;;;;;5123601;28;20310;-65
2022/02/22 11:08:12;;;;;;;3.47;2.13;;;2.00;99.90;;;;;;5123017;28;20222;-64
2022/02/22 11:10:55;;;;;;;1.80;1.70;;;2.00;99.90;;;;;;5123977;28;20192;-64
2022/02/22 11:13:31;;;;;;;1.85;1.75;;;2.00;99.90;;;;;;5124395;28;20717;-64
2022/02/22 11:16:17;;;;;;;2.42;2.20;;;2.00;99.90;;;;;;5107778;28;20191;-64
2022/02/22 11:18:52;;;;;;;2.13;1.92;;;1.90;99.90;;;;;;5123070;28;20283;-64
2022/02/22 11:21:28;;;;;;;2.28;2.08;;;2.00;99.90;;;;;;5120574;28;20233;-63
2022/02/22 11:24:06;;;;;;;1.80;1.70;;;1.90;99.90;;;;;;5116882;28;20239;-64
2022/02/22 11:26:50;;;;;;;1.70;1.60;;;1.90;99.90;;;;;;5124096;28;20226;-64
2022/02/22 11:29:23;;;;;;;1.98;1.77;;;1.90;99.90;;;;;;5122682;28;20590;-64
2022/02/22 11:32:02;;;;;;;1.80;1.70;;;1.80;99.90;;;;;;5115337;28;20328;-64
2022/02/22 11:34:37;;;;;;;1.63;1.52;;;1.80;99.90;;;;;;5123258;28;20234;-64
2022/02/22 11:37:09;;;;;;;2.85;1.95;;;1.70;99.90;;;;;;5122661;28;20203;-64
2022/02/22 11:39:48;;;;;;;1.60;1.48;;;1.70;99.90;;;;;;5122305;28;20207;-64
2022/02/22 11:42:21;;;;;;;1.75;1.65;;;1.60;99.90;;;;;;5122812;28;20231;-64
2022/02/22 11:45:02;;;;;;;1.73;1.63;;;1.50;99.90;;;;;;5123319;28;20210;-64
2022/02/22 11:47:34;;;;;;;3.72;2.45;;;1.50;99.90;;;;;;5122459;28;20235;-64
2022/02/22 11:50:15;;;;;;;2.65;2.10;;;1.40;99.90;;;;;;5123797;28;20207;-64
2022/02/22 11:52:49;;;;;;;2.28;1.95;;;1.30;99.90;;;;;;5122470;28;20199;-64
2022/02/22 11:55:21;;;;;;;7.80;2.08;;;1.30;99.90;;;;;;5122434;28;20667;-64
2022/02/22 11:57:54;;;;;;;1.80;1.70;;;1.20;99.90;;;;;;5123064;28;20211;-64
2022/02/22 12:00:36;;;;;;;3.90;2.30;;;1.20;99.90;;;;;;5122230;28;21848;-64
2022/02/22 12:03:10;;;;;;;2.17;1.98;;;1.20;99.90;;;;;;5118690;28;20215;-64
2022/02/22 12:05:45;;;;;;;2.30;2.20;;;1.20;99.90;;;;;;5123226;28;20608;-64
2022/02/22 12:08:20;;;;;;;1.50;1.40;;;1.10;99.90;;;;;;5123678;28;20350;-64
2022/02/22 12:10:55;;;;;;;2.30;1.58;;;1.10;99.90;;;;;;5122838;28;20202;-64
2022/02/22 12:13:28;;;;;;;1.98;1.77;;;1.10;99.90;;;;;;5121649;28;20202;-64
2022/02/22 12:15:59;;;;;;;2.92;2.13;;;1.00;99.90;;;;;;5121743;28;20196;-64
2022/02/22 12:18:30;;;;;;;2.20;2.05;;;1.00;99.90;;;;;;5122598;28;20200;-64
2022/02/22 12:21:02;;;;;;;2.05;1.77;;;1.00;99.90;;;;;;5122950;28;20691;-63
2022/02/22 12:23:34;;;;;;;2.00;1.90;;;0.90;99.90;;;;;;5122316;28;20192;-63
2022/02/22 12:26:08;;;;;;;7.25;1.90;;;0.90;99.90;;;;;;5122898;28;20231;-63
2022/02/22 12:28:46;;;;;;;1.73;1.63;;;0.90;99.90;;;;;;5122222;28;20200;-63
2022/02/22 12:31:26;;;;;;;2.20;1.80;;;0.80;99.90;;;;;;5123159;28;20232;-64
2022/02/22 12:34:00;;;;;;;2.28;2.08;;;0.80;99.90;;;;;;5121145;28;20199;-63
2022/02/22 12:36:33;;;;;;;1.85;1.75;;;0.80;99.90;;;;;;5122867;27;20265;-64
2022/02/22 12:39:09;;;;;;;3.85;1.95;;;0.80;99.90;;;;;;5122334;28;20195;-64
2022/02/22 12:41:41;;;;;;;3.05;1.75;;;0.70;99.60;;;;;;5122500;28;20195;-63
2022/02/22 12:44:14;;;;;;;2.90;1.70;;;0.70;99.90;;;;;;5119472;28;20547;-64
2022/02/22 12:46:47;;;;;;;4.70;2.00;;;0.70;99.90;;;;;;5122692;28;20242;-63
2022/02/22 12:49:20;;;;;;;2.50;1.73;;;0.70;99.90;;;;;;5122407;28;20218;-63
2022/02/22 12:52:00;;;;;;;2.42;1.98;;;0.60;99.90;;;;;;5123117;28;20544;-63
2022/02/22 12:54:32;;;;;;;1.77;1.58;;;0.60;99.90;;;;;;5121765;28;20219;-63
2022/02/22 12:57:06;;;;;;;2.95;1.70;;;0.60;99.90;;;;;;5123182;28;20565;-63
2022/02/22 12:59:38;;;;;;;2.65;1.50;;;0.60;99.80;;;;;;5122232;28;20210;-64
2022/02/22 13:02:09;;;;;;;2.90;1.73;;;0.60;99.80;;;;;;5119402;28;20204;-63
2022/02/22 13:04:41;;;;;;;1.80;1.70;;;0.50;99.50;;;;;;5122226;28;20196;-63
2022/02/22 13:07:15;;;;;;;2.78;1.40;;;0.50;99.20;;;;;;5120260;28;20220;-63
2022/02/22 13:09:47;;;;;;;2.90;1.80;;;0.50;99.90;;;;;;5117400;28;20214;-65
2022/02/22 13:12:28;;;;;;;3.15;1.75;;;0.50;99.80;;;;;;5121550;28;20260;-63
2022/02/22 13:15:00;;;;;;;1.88;1.77;;;0.50;99.40;;;;;;5121502;28;20204;-63
2022/02/22 13:17:32;;;;;;;1.80;1.70;;;0.50;99.40;;;;;;5122572;28;20210;-64
2022/02/22 13:20:04;;;;;;;3.20;2.05;;;0.50;99.70;;;;;;5121911;28;20309;-63
2022/02/22 13:22:40;;;;;;;2.30;2.00;;;0.50;98.70;;;;;;5122211;28;20614;-63
2022/02/22 13:25:15;;;;;;;2.42;1.85;;;0.50;98.60;;;;;;5122066;28;20206;-63
2022/02/22 13:27:48;;;;;;;2.00;1.80;;;0.50;98.80;;;;;;5122248;28;20204;-64